Time;durP1;ratioP1;P1;durP2;ratioP2;P2;SDS_P1;SDS_P2;PMS_P1;PMS_P2;Temp;Humidity;BMP_temperature;BMP_pressure;BME280_temperature;BME280_humidity;BME280_pressure;Samples;Min_cycle;Max_cycle;Signal;HPM_P1;HPM_P2
2022/02/24 00:02:19;;;;;;;9.23;4.30;;;;;;;2.94;88.75;95471.69;5061538;28;20052;-44
2022/02/24 00:04:47;;;;;;;9.20;4.28;;;;;;;2.80;88.42;95457.75;5060730;28;20040;-47
2022/02/24 00:07:17;;;;;;;3.17;1.65;;;;;;;2.83;88.29;95463.34;5058393;28;20052;-44
2022/02/24 00:09:44;;;;;;;23.25;6.30;;;;;;;2.71;88.86;95451.81;5057631;28;20403;-44
2022/02/24 00:12:11;;;;;;;12.27;4.38;;;;;;;2.80;88.46;95461.13;5065469;28;20405;-48
2022/02/24 00:14:37;;;;;;;7.95;4.72;;;;;;;2.72;88.49;95450.88;5059609;28;20044;-46
2022/02/24 00:17:04;;;;;;;11.10;5.38;;;;;;;2.77;88.43;95469.16;5057825;28;20040;-44
2022/02/24 00:19:31;;;;;;;12.20;4.90;;;;;;;2.81;88.14;95456.75;5058802;28;20079;-46
2022/02/24 00:21:58;;;;;;;24.38;6.47;;;;;;;2.76;88.60;95466.78;5062028;28;20044;-48
2022/02/24 00:24:25;;;;;;;8.18;4.35;;;;;;;2.81;87.85;95462.72;5059892;28;20041;-47
2022/02/24 00:26:51;;;;;;;10.05;4.13;;;;;;;2.84;87.92;95464.94;5058567;28;20045;-47
2022/02/24 00:29:18;;;;;;;8.13;3.83;;;;;;;2.85;87.46;95450.34;5060844;28;20572;-44
2022/02/24 00:31:45;;;;;;;13.25;4.13;;;;;;;2.82;88.64;95451.44;5058903;28;20075;-47
2022/02/24 00:34:12;;;;;;;6.40;3.25;;;;;;;2.80;88.21;95453.41;5065484;28;20097;-45
2022/02/24 00:36:39;;;;;;;9.30;4.05;;;;;;;2.86;88.22;95457.88;5060982;28;20041;-47
2022/02/24 00:39:09;;;;;;;7.97;3.72;;;;;;;2.83;87.68;95453.06;5061229;28;20045;-44
2022/02/24 00:41:37;;;;;;;13.40;4.72;;;;;;;2.82;88.22;95459.16;5063535;28;20075;-43
2022/02/24 00:44:04;;;;;;;8.10;3.78;;;;;;;2.80;88.40;95447.47;5060113;28;20043;-43
2022/02/24 00:46:30;;;;;;;7.65;3.80;;;;;;;2.73;88.48;95442.16;5060672;28;20098;-44
2022/02/24 00:48:58;;;;;;;5.35;3.67;;;;;;;2.67;88.60;95442.84;5063664;28;20493;-44
2022/02/24 00:51:24;;;;;;;9.65;3.88;;;;;;;2.65;89.11;95439.63;5064924;28;20049;-45
2022/02/24 00:53:51;;;;;;;7.82;3.78;;;;;;;2.55;89.92;95444.97;5062686;28;20117;-45
2022/02/24 00:56:18;;;;;;;7.20;3.50;;;;;;;2.47;90.33;95443.22;5061709;28;20509;-44
2022/02/24 00:58:45;;;;;;;8.23;3.45;;;;;;;2.42;90.56;95445.47;5061363;28;20048;-43
2022/02/24 01:01:14;;;;;;;5.28;2.75;;;;;;;2.29;90.69;95450.34;5055820;28;20045;-46
2022/02/24 01:03:41;;;;;;;20.30;4.32;;;;;;;2.14;91.59;95441.69;5060546;28;20041;-45
2022/02/24 01:06:08;;;;;;;6.78;3.03;;;;;;;1.95;92.53;95443.66;5062346;28;20045;-46
2022/02/24 01:08:35;;;;;;;13.95;2.55;;;;;;;1.96;92.58;95440.09;5065790;28;20036;-46
2022/02/24 01:11:03;;;;;;;3.90;2.33;;;;;;;1.83;93.56;95439.78;5077275;28;20106;-44
2022/02/24 01:13:30;;;;;;;5.38;3.58;;;;;;;1.74;94.12;95441.56;5055939;28;20045;-45
2022/02/24 01:15:57;;;;;;;5.22;3.05;;;;;;;1.65;94.75;95438.19;5061820;28;20033;-43
2022/02/24 01:18:26;;;;;;;6.05;3.67;;;;;;;1.59;95.37;95438.84;5060889;28;20048;-43
2022/02/24 01:20:53;;;;;;;9.70;3.38;;;;;;;1.48;95.90;95441.72;5060602;28;20048;-44
2022/02/24 01:23:20;;;;;;;8.45;2.83;;;;;;;1.41;96.71;95438.19;5058254;28;20407;-44
2022/02/24 01:25:47;;;;;;;11.90;3.83;;;;;;;1.34;97.19;95441.38;5055878;28;20037;-43
2022/02/24 01:28:13;;;;;;;11.13;3.67;;;;;;;1.27;97.92;95442.97;5064439;28;20076;-44
2022/02/24 01:30:40;;;;;;;9.25;4.22;;;;;;;1.27;97.62;95445.53;5057781;28;20502;-43
2022/02/24 01:33:08;;;;;;;8.23;3.42;;;;;;;1.21;97.85;95435.91;5066733;28;20110;-46
2022/02/24 01:35:34;;;;;;;7.72;3.13;;;;;;;1.20;97.81;95439.41;5066504;28;20095;-44
2022/02/24 01:38:01;;;;;;;16.23;4.40;;;;;;;1.16;97.98;95430.44;5060831;28;20044;-49
2022/02/24 01:40:28;;;;;;;6.93;3.70;;;;;;;1.14;97.83;95424.66;5061850;28;20495;-45
2022/02/24 01:42:55;;;;;;;6.97;3.47;;;;;;;1.10;98.02;95428.50;5063997;28;20044;-48
2022/02/24 01:45:21;;;;;;;14.18;3.83;;;;;;;1.05;98.52;95435.88;5056515;28;20040;-46
2022/02/24 01:47:48;;;;;;;8.38;4.53;;;;;;;1.03;98.51;95438.59;5060221;28;20032;-43
2022/02/24 01:50:15;;;;;;;12.40;4.80;;;;;;;0.99;98.71;95436.47;5056265;28;20131;-43
2022/02/24 01:52:44;;;;;;;7.03;3.95;;;;;;;0.97;98.72;95443.53;5058225;28;20045;-44
2022/02/24 01:55:11;;;;;;;12.13;3.83;;;;;;;0.90;99.30;95433.91;5059663;28;20047;-43
2022/02/24 01:57:38;;;;;;;13.82;4.40;;;;;;;0.89;99.33;95432.28;5062170;28;20060;-43
2022/02/24 02:00:07;;;;;;;8.30;3.97;;;;;;;0.79;100.00;95426.47;5081101;28;20465;-47
2022/02/24 02:02:39;;;;;;;;;;;;;;;0.72;100.00;95425.50;5062140;28;20465;-44
2022/02/24 02:05:07;;;;;;;19.80;4.15;;;;;;;0.69;100.00;95428.38;5061339;28;19924;-45
2022/02/24 02:07:34;;;;;;;12.90;5.57;;;;;;;0.66;100.00;95421.00;5057959;28;20083;-44
2022/02/24 02:10:01;;;;;;;15.20;4.28;;;;;;;0.65;100.00;95424.50;5057522;28;20063;-48
2022/02/24 02:12:27;;;;;;;13.38;4.82;;;;;;;0.45;100.00;95424.78;5058723;28;20427;-47
2022/02/24 02:14:54;;;;;;;5.72;3.47;;;;;;;0.46;100.00;95436.59;5060944;28;20102;-48
2022/02/24 02:17:21;;;;;;;4.68;2.88;;;;;;;0.47;100.00;95432.28;5058345;28;20036;-45
2022/02/24 02:19:48;;;;;;;3.72;2.65;;;;;;;0.47;100.00;95425.41;5060590;28;20141;-47
2022/02/24 02:22:14;;;;;;;11.38;2.10;;;;;;;0.57;100.00;95428.66;5058580;28;20045;-44
2022/02/24 02:24:57;;;;;;;5.38;2.33;;;;;;;0.63;99.14;95444.38;5063088;28;20044;-43
2022/02/24 02:27:24;;;;;;;16.17;3.22;;;;;;;0.66;97.07;95437.19;5050753;28;20045;-44
2022/02/24 02:29:51;;;;;;;8.15;3.75;;;;;;;0.67;97.43;95438.00;5058106;28;20053;-43
2022/02/24 02:32:18;;;;;;;6.20;2.63;;;;;;;0.61;98.54;95434.25;5062278;28;20555;-43
2022/02/24 02:34:44;;;;;;;12.38;3.83;;;;;;;0.53;98.74;95432.47;5058872;28;20040;-45
2022/02/24 02:37:12;;;;;;;6.57;2.85;;;;;;;0.46;99.23;95446.06;5060101;28;20514;-45
2022/02/24 02:39:40;;;;;;;11.32;3.45;;;;;;;0.39;99.62;95451.00;5059259;28;20128;-44
2022/02/24 02:42:07;;;;;;;16.52;4.10;;;;;;;0.36;99.63;95456.41;5056524;28;20114;-43
2022/02/24 02:44:33;;;;;;;7.85;3.15;;;;;;;0.28;100.00;95453.81;5060776;28;20051;-43
2022/02/24 02:47:00;;;;;;;7.25;2.03;;;;;;;0.25;100.00;95446.44;5059713;28;20040;-48
2022/02/24 02:49:27;;;;;;;9.88;3.38;;;;;;;0.25;100.00;95449.00;5063513;28;20045;-46
2022/02/24 02:51:54;;;;;;;4.38;2.83;;;;;;;0.23;99.37;95453.47;5056764;28;20470;-44
2022/02/24 02:54:21;;;;;;;8.45;3.75;;;;;;;0.24;100.00;95449.97;5063087;28;20195;-45
2022/02/24 02:56:48;;;;;;;6.50;2.22;;;;;;;0.27;98.75;95457.31;5058351;28;20068;-47
2022/02/24 02:59:17;;;;;;;6.50;2.83;;;;;;;0.22;99.50;95455.22;5054129;28;20102;-47
2022/02/24 03:01:52;;;;;;;8.63;2.50;;;;;;;0.29;97.70;95465.66;5060385;28;20040;-43
2022/02/24 03:04:20;;;;;;;3.78;2.08;;;;;;;0.22;98.22;95444.16;5059816;28;20045;-45
2022/02/24 03:06:47;;;;;;;9.13;2.95;;;;;;;0.26;98.36;95460.84;5063108;28;20532;-43
2022/02/24 03:09:14;;;;;;;5.60;3.47;;;;;;;0.21;99.79;95452.81;5061683;28;20040;-43
2022/02/24 03:11:41;;;;;;;18.10;3.33;;;;;;;0.15;100.00;95460.16;5060347;28;20093;-43
2022/02/24 03:14:07;;;;;;;6.35;2.63;;;;;;;0.01;100.00;95472.69;5059969;28;20047;-45
2022/02/24 03:16:34;;;;;;;6.72;3.42;;;;;;;0.01;100.00;95468.38;5064472;28;20066;-44
2022/02/24 03:19:01;;;;;;;5.20;2.33;;;;;;;0.09;98.31;95476.13;5062821;28;20053;-42
2022/02/24 03:21:28;;;;;;;18.08;3.92;;;;;;;0.17;95.56;95483.84;5057153;28;20045;-42
2022/02/24 03:23:54;;;;;;;7.60;2.08;;;;;;;0.40;90.76;95480.81;5061553;28;20037;-44
2022/02/24 03:26:21;;;;;;;6.22;1.20;;;;;;;0.71;85.96;95482.88;5060666;28;20033;-45
2022/02/24 03:28:48;;;;;;;1.00;0.55;;;;;;;1.02;82.92;95487.47;5056724;28;20066;-48
2022/02/24 03:31:16;;;;;;;0.57;0.50;;;;;;;1.32;79.77;95484.34;5057875;28;20490;-44
2022/02/24 03:33:42;;;;;;;2.45;1.42;;;;;;;1.49;79.46;95484.38;5057015;28;20119;-43
2022/02/24 03:36:11;;;;;;;0.73;0.50;;;;;;;1.61;77.11;95483.13;5055085;28;20560;-43
2022/02/24 03:38:37;;;;;;;1.45;0.45;;;;;;;1.90;75.41;95492.13;5054955;28;20501;-46
2022/02/24 03:41:04;;;;;;;1.35;0.98;;;;;;;2.02;75.26;95495.19;5059473;28;20045;-46
2022/02/24 03:43:31;;;;;;;2.22;0.90;;;;;;;2.02;75.20;95487.50;5059645;28;20044;-47
2022/02/24 03:45:58;;;;;;;1.40;0.70;;;;;;;2.15;74.35;95494.69;5061097;28;20073;-48
2022/02/24 03:48:25;;;;;;;1.38;0.80;;;;;;;2.20;74.06;95502.72;5057823;28;20044;-43
2022/02/24 03:50:51;;;;;;;1.55;0.93;;;;;;;2.22;74.24;95495.66;5060546;28;20498;-42
2022/02/24 03:53:18;;;;;;;1.98;1.05;;;;;;;2.20;74.08;95495.81;5074907;28;20083;-43
2022/02/24 03:55:49;;;;;;;2.20;1.10;;;;;;;2.17;74.70;95492.78;5063294;28;20090;-47
2022/02/24 03:58:16;;;;;;;4.68;1.77;;;;;;;2.09;75.12;95491.81;5056825;28;20049;-45
2022/02/24 04:00:42;;;;;;;4.38;0.77;;;;;;;2.10;74.07;95501.09;5060143;28;20041;-47
2022/02/24 04:03:10;;;;;;;1.40;0.75;;;;;;;2.21;73.68;95499.19;5062277;28;20395;-45
2022/02/24 04:05:37;;;;;;;4.15;1.08;;;;;;;2.23;73.92;95497.25;5059770;28;20044;-46
2022/02/24 04:08:04;;;;;;;1.10;0.68;;;;;;;2.22;73.85;95498.22;5060621;28;20052;-47
2022/02/24 04:10:31;;;;;;;2.25;0.95;;;;;;;2.14;74.18;95493.09;5058960;28;20746;-44
2022/02/24 04:12:58;;;;;;;2.65;1.20;;;;;;;2.21;74.18;95504.31;5058751;28;20049;-43
2022/02/24 04:15:25;;;;;;;3.15;0.80;;;;;;;2.07;74.30;95483.47;5061753;28;20421;-44
2022/02/24 04:17:51;;;;;;;6.25;1.52;;;;;;;2.13;75.27;95494.84;5064107;28;20403;-47
2022/02/24 04:20:18;;;;;;;1.85;0.95;;;;;;;2.08;75.71;95505.63;5065600;28;20075;-44
2022/02/24 04:22:45;;;;;;;6.13;1.95;;;;;;;2.09;75.92;95511.56;5063484;28;20032;-43
2022/02/24 04:25:12;;;;;;;3.90;1.55;;;;;;;2.06;75.62;95506.75;5061387;28;20049;-47
2022/02/24 04:27:47;;;;;;;3.70;1.35;;;;;;;2.12;75.11;95516.38;5061432;28;20045;-44
2022/02/24 04:30:14;;;;;;;;;;;;;;;2.16;75.18;95506.56;5063844;28;20036;-45
2022/02/24 04:32:41;;;;;;;2.33;1.00;;;;;;;2.05;76.13;95500.81;5063498;28;19921;-44
2022/02/24 04:35:10;;;;;;;2.97;1.13;;;;;;;2.14;76.64;95518.78;5065911;28;20528;-46
2022/02/24 04:37:38;;;;;;;6.15;2.95;;;;;;;2.18;77.14;95522.63;5060041;28;20041;-45
2022/02/24 04:40:06;;;;;;;4.03;2.35;;;;;;;2.19;77.33;95531.97;5062023;28;20405;-43
2022/02/24 04:42:34;;;;;;;3.53;1.10;;;;;;;2.25;76.36;95541.59;5057635;28;20044;-45
2022/02/24 04:45:05;;;;;;;17.33;2.20;;;;;;;2.25;76.47;95531.31;5065934;28;20048;-44
2022/02/24 04:47:32;;;;;;;7.28;2.30;;;;;;;2.18;77.21;95535.47;5057658;28;20051;-43
2022/02/24 04:49:59;;;;;;;6.25;2.60;;;;;;;2.24;77.40;95540.00;5065337;28;20434;-44
2022/02/24 04:52:25;;;;;;;6.70;3.70;;;;;;;2.26;77.73;95544.00;5062852;28;20128;-43
2022/02/24 04:54:52;;;;;;;11.48;3.10;;;;;;;2.26;77.93;95538.84;5063614;28;20052;-45
2022/02/24 04:57:20;;;;;;;4.60;2.50;;;;;;;2.24;77.49;95555.41;5060456;28;20507;-44
2022/02/24 04:59:47;;;;;;;3.85;1.65;;;;;;;2.28;77.05;95543.84;5063775;28;20418;-45
2022/02/24 05:02:14;;;;;;;6.38;1.83;;;;;;;2.22;77.94;95552.22;5061140;28;20095;-45
2022/02/24 05:04:41;;;;;;;4.35;1.58;;;;;;;2.21;77.70;95555.72;5061944;28;20041;-45
2022/02/24 05:07:08;;;;;;;2.42;1.02;;;;;;;2.25;76.96;95572.44;5061647;28;20517;-44
2022/02/24 05:09:35;;;;;;;3.30;1.88;;;;;;;2.26;77.06;95574.03;5063701;28;20064;-46
2022/02/24 05:12:02;;;;;;;3.67;1.50;;;;;;;2.36;76.42;95581.59;5060601;28;20395;-50
2022/02/24 05:14:29;;;;;;;5.13;1.83;;;;;;;2.33;76.93;95574.22;5061657;28;20124;-46
2022/02/24 05:16:56;;;;;;;12.70;2.33;;;;;;;2.38;76.02;95588.19;5064136;28;20041;-44
2022/02/24 05:19:23;;;;;;;6.75;2.03;;;;;;;2.44;75.76;95579.81;5062542;28;20066;-47
2022/02/24 05:21:50;;;;;;;9.23;3.50;;;;;;;2.45;75.57;95588.34;5064325;28;20513;-43
2022/02/24 05:24:16;;;;;;;4.75;2.75;;;;;;;2.51;72.85;95589.47;5063400;28;20053;-44
2022/02/24 05:26:43;;;;;;;4.45;2.63;;;;;;;2.51;74.44;95592.03;5062576;28;20044;-44
2022/02/24 05:29:10;;;;;;;7.22;3.70;;;;;;;2.48;74.60;95588.84;5059698;28;20083;-43
2022/02/24 05:31:37;;;;;;;47.50;9.90;;;;;;;2.63;73.44;95590.75;5061240;28;20033;-45
2022/02/24 05:34:04;;;;;;;6.68;4.05;;;;;;;2.62;72.47;95584.78;5061331;28;20052;-46
2022/02/24 05:36:31;;;;;;;5.25;2.35;;;;;;;2.60;71.28;95583.34;5061447;28;20050;-44
2022/02/24 05:38:58;;;;;;;2.97;1.90;;;;;;;2.72;71.64;95594.91;5057370;28;20508;-46
2022/02/24 05:41:25;;;;;;;12.48;3.67;;;;;;;2.74;72.79;95603.28;5059516;28;20123;-45
2022/02/24 05:43:52;;;;;;;2.55;1.48;;;;;;;2.71;72.03;95608.72;5063912;28;20051;-42
2022/02/24 05:46:19;;;;;;;3.38;1.95;;;;;;;2.72;73.68;95620.66;5059676;28;20056;-46
2022/02/24 05:48:46;;;;;;;4.35;2.00;;;;;;;2.70;74.49;95622.53;5057042;28;20047;-45
2022/02/24 05:51:13;;;;;;;7.15;3.17;;;;;;;2.70;75.18;95619.97;5060618;28;20530;-45
2022/02/24 05:53:40;;;;;;;4.60;2.60;;;;;;;2.71;74.13;95624.16;5064739;28;20067;-43
2022/02/24 05:56:07;;;;;;;6.00;2.40;;;;;;;2.75;73.84;95625.44;5059102;28;20044;-42
2022/02/24 05:58:34;;;;;;;4.88;2.75;;;;;;;2.77;73.63;95613.22;5059909;28;20463;-43
2022/02/24 06:01:01;;;;;;;2.78;1.42;;;;;;;2.96;72.80;95617.22;5058489;28;20114;-46
2022/02/24 06:03:28;;;;;;;5.63;1.23;;;;;;;3.10;71.78;95628.63;5059181;28;20583;-44
2022/02/24 06:05:56;;;;;;;3.78;1.42;;;;;;;3.24;70.91;95619.41;5059218;28;20044;-43
2022/02/24 06:08:25;;;;;;;2.15;1.02;;;;;;;3.36;69.74;95627.56;5060268;28;20048;-44
2022/02/24 06:10:52;;;;;;;1.58;1.00;;;;;;;3.38;68.86;95630.78;5059098;28;20552;-45
2022/02/24 06:13:19;;;;;;;3.25;1.13;;;;;;;3.50;68.34;95637.19;5063773;28;20582;-45
2022/02/24 06:15:46;;;;;;;3.35;1.58;;;;;;;3.54;68.60;95641.03;5057480;28;20052;-45
2022/02/24 06:18:18;;;;;;;4.85;2.00;;;;;;;3.60;70.06;95645.53;5062873;28;20097;-43
2022/02/24 06:20:48;;;;;;;3.75;1.58;;;;;;;3.67;70.07;95655.16;5062736;28;20040;-46
2022/02/24 06:23:14;;;;;;;5.13;1.70;;;;;;;3.77;69.88;95658.34;5061439;28;20501;-49
2022/02/24 06:25:41;;;;;;;4.40;1.92;;;;;;;3.77;66.81;95645.47;5058243;28;20066;-45
2022/02/24 06:28:08;;;;;;;4.43;2.50;;;;;;;3.86;66.97;95659.91;5059785;28;20560;-45
2022/02/24 06:30:35;;;;;;;6.05;2.83;;;;;;;3.74;68.93;95661.25;5059584;28;20099;-44
2022/02/24 06:33:05;;;;;;;7.53;2.95;;;;;;;3.70;70.32;95654.81;5055189;28;20048;-49
2022/02/24 06:35:32;;;;;;;5.18;1.77;;;;;;;3.55;67.34;95662.47;5057544;28;20138;-47
2022/02/24 06:38:01;;;;;;;5.80;3.30;;;;;;;3.47;68.24;95660.69;5054045;28;20119;-45
2022/02/24 06:40:28;;;;;;;5.70;3.55;;;;;;;3.45;69.26;95673.72;5054553;28;20044;-44
2022/02/24 06:42:58;;;;;;;6.55;3.33;;;;;;;3.34;70.17;95665.56;5057107;28;20069;-45
2022/02/24 06:45:25;;;;;;;7.20;1.45;;;;;;;3.19;70.94;95668.81;5058663;28;20036;-45
2022/02/24 06:47:52;;;;;;;2.65;1.55;;;;;;;3.19;70.95;95663.66;5059003;28;20029;-46
2022/02/24 06:50:20;;;;;;;6.32;2.60;;;;;;;3.23;69.33;95667.50;5062808;28;20040;-46
2022/02/24 06:52:46;;;;;;;8.65;3.35;;;;;;;3.25;71.06;95670.72;5056986;28;20044;-48
2022/02/24 06:55:13;;;;;;;8.48;2.65;;;;;;;3.38;72.27;95666.84;5062018;28;20098;-47
2022/02/24 06:57:46;;;;;;;11.98;3.58;;;;;;;3.48;70.29;95662.31;5060756;28;20052;-48
2022/02/24 07:00:15;;;;;;;11.45;4.70;;;;;;;3.69;70.86;95668.66;5060938;28;20059;-46
2022/02/24 07:02:42;;;;;;;15.70;7.05;;;;;;;3.82;69.98;95666.38;5059990;28;20068;-45
2022/02/24 07:05:10;;;;;;;3.78;2.03;;;;;;;3.84;69.74;95672.16;5060188;28;20107;-48
2022/02/24 07:07:37;;;;;;;2.45;1.77;;;;;;;3.68;68.79;95656.78;5056408;28;20041;-46
2022/02/24 07:10:10;;;;;;;9.27;1.83;;;;;;;3.57;70.49;95656.16;5057962;28;20074;-44
2022/02/24 07:12:37;;;;;;;3.65;1.65;;;;;;;3.61;70.92;95667.72;5060518;28;20468;-44
2022/02/24 07:15:06;;;;;;;2.42;1.13;;;;;;;3.63;69.39;95670.13;5055908;28;20032;-46
2022/02/24 07:17:38;;;;;;;4.03;1.75;;;;;;;3.55;68.79;95673.56;5060295;28;20445;-46
2022/02/24 07:20:07;;;;;;;4.50;2.92;;;;;;;3.56;69.97;95675.16;5062712;28;20040;-45
2022/02/24 07:22:34;;;;;;;7.55;1.90;;;;;;;3.58;68.90;95673.22;5054045;28;20437;-47
2022/02/24 07:25:01;;;;;;;1.90;1.20;;;;;;;3.58;70.27;95678.38;5058319;28;20102;-45
2022/02/24 07:27:27;;;;;;;1.63;0.77;;;;;;;3.61;71.24;95678.03;5055662;28;20044;-44
2022/02/24 07:29:54;;;;;;;2.33;1.38;;;;;;;3.70;72.26;95665.13;5062637;28;20041;-47
2022/02/24 07:32:21;;;;;;;2.53;1.30;;;;;;;3.59;70.92;95674.81;5061103;28;20107;-45
2022/02/24 07:34:48;;;;;;;2.00;1.00;;;;;;;3.51;72.48;95667.13;5057657;28;20119;-46
2022/02/24 07:37:15;;;;;;;3.88;1.42;;;;;;;3.41;72.96;95664.72;5058949;28;20029;-47
2022/02/24 07:39:42;;;;;;;1.75;0.98;;;;;;;3.27;72.95;95655.13;5060202;28;20045;-46
2022/02/24 07:42:12;;;;;;;1.48;1.10;;;;;;;3.29;74.41;95667.84;5060195;28;20059;-45
2022/02/24 07:44:39;;;;;;;0.85;0.75;;;;;;;3.29;74.97;95660.09;5057982;28;20125;-47
2022/02/24 07:47:06;;;;;;;1.35;0.93;;;;;;;3.34;73.79;95670.72;5059766;28;20037;-45
2022/02/24 07:49:33;;;;;;;3.05;2.15;;;;;;;3.42;74.80;95673.25;5060037;28;20045;-45
2022/02/24 07:52:00;;;;;;;3.30;1.73;;;;;;;3.53;75.33;95675.50;5064375;28;20131;-44
2022/02/24 07:54:26;;;;;;;2.58;1.60;;;;;;;3.76;74.21;95685.06;5061323;28;20036;-44
2022/02/24 07:56:53;;;;;;;1.63;1.42;;;;;;;3.85;72.81;95678.91;5062551;28;20080;-47
2022/02/24 07:59:20;;;;;;;2.72;1.52;;;;;;;3.95;72.69;95684.66;5065392;28;20040;-46
2022/02/24 08:01:47;;;;;;;2.33;1.30;;;;;;;4.05;73.03;95689.59;5062647;28;20143;-47
2022/02/24 08:04:15;;;;;;;2.08;0.80;;;;;;;4.16;73.24;95698.72;5062094;28;20052;-45
2022/02/24 08:06:43;;;;;;;1.77;1.20;;;;;;;4.21;73.47;95699.03;5058779;28;20407;-46
2022/02/24 08:09:10;;;;;;;2.70;1.42;;;;;;;4.08;73.48;95688.47;5064464;28;20056;-45
2022/02/24 08:11:36;;;;;;;1.60;0.68;;;;;;;4.07;73.65;95702.31;5063631;28;20048;-49
2022/02/24 08:14:04;;;;;;;3.22;1.20;;;;;;;3.86;74.07;95706.28;5062096;28;21699;-45
2022/02/24 08:16:31;;;;;;;1.30;0.95;;;;;;;3.92;73.89;95705.63;5057256;28;22992;-46
2022/02/24 08:19:01;;;;;;;17.35;2.45;;;;;;;4.00;75.62;95713.31;5062812;28;20132;-44
2022/02/24 08:21:27;;;;;;;1.23;0.85;;;;;;;3.87;75.79;95702.75;5061955;28;20063;-45
2022/02/24 08:23:54;;;;;;;2.15;1.33;;;;;;;3.81;76.27;95709.34;5062440;28;20074;-45
2022/02/24 08:26:24;;;;;;;1.55;0.63;;;;;;;3.76;79.17;95705.69;5059062;28;21745;-45
2022/02/24 08:28:51;;;;;;;2.10;1.00;;;;;;;3.75;81.47;95709.25;5059966;28;20064;-45
2022/02/24 08:31:18;;;;;;;5.20;1.23;;;;;;;3.85;81.57;95712.41;5062583;28;20210;-46
2022/02/24 08:33:45;;;;;;;1.20;0.80;;;;;;;4.00;80.92;95713.31;5056656;28;20048;-48
2022/02/24 08:36:12;;;;;;;1.75;0.60;;;;;;;4.04;79.83;95713.00;5065707;28;20037;-44
2022/02/24 08:38:39;;;;;;;1.00;0.70;;;;;;;4.04;81.20;95715.56;5057251;28;20048;-45
2022/02/24 08:41:26;;;;;;;1.60;0.80;;;;;;;4.19;81.44;95719.03;5057469;28;20048;-48
2022/02/24 08:43:53;;;;;;;1.73;1.02;;;;;;;4.15;82.11;95710.03;5060680;28;20437;-49
2022/02/24 08:46:19;;;;;;;1.40;0.93;;;;;;;4.13;82.72;95719.72;5060057;28;20130;-50
2022/02/24 08:48:46;;;;;;;1.20;0.88;;;;;;;4.18;83.16;95720.03;5056136;28;20052;-47
2022/02/24 08:51:13;;;;;;;4.45;1.75;;;;;;;4.23;83.37;95717.72;5059748;28;20106;-46
2022/02/24 08:53:40;;;;;;;2.25;1.50;;;;;;;4.22;85.15;95716.13;5061864;28;20053;-49
2022/02/24 08:56:07;;;;;;;4.05;2.50;;;;;;;4.24;86.33;95724.50;5063021;28;20121;-46
2022/02/24 08:58:34;;;;;;;4.68;1.98;;;;;;;4.33;84.25;95726.03;5059961;28;20079;-44
2022/02/24 09:01:01;;;;;;;1.67;0.95;;;;;;;4.30;84.81;95728.97;5053924;28;20045;-44
2022/02/24 09:03:28;;;;;;;3.03;1.63;;;;;;;4.35;84.76;95731.84;5054429;28;20080;-44
2022/02/24 09:05:55;;;;;;;2.15;1.45;;;;;;;4.49;84.84;95721.78;5058639;28;20050;-46
2022/02/24 09:08:21;;;;;;;2.50;1.50;;;;;;;4.65;84.56;95716.50;5056025;28;20061;-47
2022/02/24 09:10:48;;;;;;;1.88;1.15;;;;;;;5.04;81.20;95705.25;5057181;28;20056;-49
2022/02/24 09:13:15;;;;;;;1.55;0.80;;;;;;;5.41;78.56;95706.19;5052693;28;20064;-47
2022/02/24 09:15:41;;;;;;;9.35;3.60;;;;;;;5.52;78.44;95707.53;5054391;28;20078;-51
2022/02/24 09:18:09;;;;;;;2.35;1.20;;;;;;;5.53;75.76;95704.78;5053660;28;20053;-49
2022/02/24 09:20:40;;;;;;;1.30;1.00;;;;;;;5.59;76.44;95703.25;5055195;28;20076;-49
2022/02/24 09:23:08;;;;;;;2.53;1.23;;;;;;;5.59;74.94;95697.31;5052970;28;20068;-47
2022/02/24 09:25:37;;;;;;;2.28;1.10;;;;;;;5.51;73.81;95701.56;5072256;28;20058;-49
2022/02/24 09:28:04;;;;;;;2.45;1.20;;;;;;;5.60;73.45;95704.06;5059721;28;20048;-50
2022/02/24 09:30:32;;;;;;;2.35;1.40;;;;;;;5.51;73.44;95696.41;5061448;28;20064;-47
2022/02/24 09:33:03;;;;;;;4.28;2.78;;;;;;;5.11;74.09;95695.84;5057712;28;20065;-47
2022/02/24 09:35:30;;;;;;;3.88;2.10;;;;;;;4.69;78.24;95697.13;5058133;28;20404;-48
2022/02/24 09:37:57;;;;;;;2.70;1.73;;;;;;;4.48;79.48;95694.38;5059263;28;20419;-48
2022/02/24 09:40:25;;;;;;;1.23;0.90;;;;;;;4.48;79.55;95684.03;5060816;28;20068;-47
2022/02/24 09:43:14;;;;;;;2.20;1.33;;;;;;;4.25;80.55;95700.31;5055893;28;20048;-51
2022/02/24 09:45:42;;;;;;;3.75;1.17;;;;;;;4.12;81.18;95705.22;5051283;28;20049;-47
2022/02/24 09:48:09;;;;;;;2.45;0.95;;;;;;;4.33;79.06;95692.53;5055946;28;20040;-48
2022/02/24 09:50:38;;;;;;;2.42;1.42;;;;;;;4.65;78.51;95690.72;5058237;28;20064;-50
2022/02/24 09:53:05;;;;;;;69.85;21.63;;;;;;;4.81;77.16;95668.31;5062794;28;20683;-47
2022/02/24 09:55:32;;;;;;;10.45;7.03;;;;;;;5.12;75.30;95692.25;5058678;28;20056;-51
2022/02/24 09:57:59;;;;;;;7.68;2.25;;;;;;;5.19;73.71;95692.38;5054301;28;20048;-49
2022/02/24 10:00:26;;;;;;;1.50;1.00;;;;;;;5.14;72.61;95690.28;5056349;28;20064;-49
2022/02/24 10:02:53;;;;;;;10.82;2.60;;;;;;;5.01;74.51;95684.94;5049222;28;20048;-47
2022/02/24 10:05:20;;;;;;;1.10;0.60;;;;;;;5.02;72.42;95689.09;5054276;28;20098;-48
2022/02/24 10:07:49;;;;;;;4.78;2.08;;;;;;;4.98;73.06;95685.28;5049870;28;20498;-49
2022/02/24 10:10:25;;;;;;;7.45;2.38;;;;;;;4.95;73.86;95680.47;5058781;28;20472;-48
2022/02/24 10:13:09;;;;;;;4.53;2.50;;;;;;;5.03;73.49;95672.66;5060693;28;20044;-47
2022/02/24 10:15:44;;;;;;;2.97;1.25;;;;;;;5.05;72.34;95660.38;5061701;28;20131;-51
2022/02/24 10:18:17;;;;;;;6.30;2.72;;;;;;;5.15;73.42;95660.94;5063856;28;20040;-50
2022/02/24 10:20:47;;;;;;;8.52;3.35;;;;;;;5.14;72.79;95654.13;5063627;28;20561;-48
2022/02/24 10:23:16;;;;;;;1.95;1.00;;;;;;;4.88;72.47;95657.13;5062589;28;20502;-49
2022/02/24 10:25:43;;;;;;;3.97;1.38;;;;;;;4.87;73.23;95652.16;5071528;28;21049;-47
2022/02/24 10:28:30;;;;;;;6.30;2.67;;;;;;;4.91;72.60;95648.22;5064102;28;20036;-50
2022/02/24 10:30:58;;;;;;;3.83;1.52;;;;;;;4.71;73.23;95643.56;5061715;28;20121;-47
2022/02/24 10:33:29;;;;;;;8.02;2.67;;;;;;;4.92;71.93;95649.84;5054313;28;20072;-47
2022/02/24 10:36:09;;;;;;;3.80;1.70;;;;;;;5.07;74.49;95642.91;5052769;28;20048;-49
2022/02/24 10:38:36;;;;;;;3.80;1.83;;;;;;;5.20;71.96;95634.56;5050232;28;20392;-49
2022/02/24 10:41:03;;;;;;;6.63;2.28;;;;;;;5.50;71.31;95637.94;5049077;28;20053;-47
2022/02/24 10:43:32;;;;;;;2.28;1.42;;;;;;;5.82;70.01;95630.78;5054803;28;20107;-49
2022/02/24 10:46:02;;;;;;;4.47;1.75;;;;;;;6.17;68.98;95631.00;5052820;28;20048;-47
2022/02/24 10:48:30;;;;;;;4.18;1.90;;;;;;;6.25;66.40;95630.88;5053338;28;20049;-49
2022/02/24 10:51:05;;;;;;;3.90;1.40;;;;;;;5.94;67.02;95634.50;5046865;28;20846;-49
2022/02/24 10:53:35;;;;;;;2.28;1.13;;;;;;;6.06;66.52;95628.88;5053894;28;20032;-50
2022/02/24 10:56:15;;;;;;;3.95;1.77;;;;;;;6.14;65.74;95628.78;5061557;28;20051;-50
2022/02/24 10:58:44;;;;;;;5.75;2.60;;;;;;;6.24;66.32;95618.13;5062066;28;20039;-48
2022/02/24 11:01:18;;;;;;;2.33;1.35;;;;;;;6.03;65.23;95621.50;5062703;28;20047;-48
2022/02/24 11:03:47;;;;;;;3.47;1.90;;;;;;;5.92;66.80;95615.81;5051825;28;20060;-47
2022/02/24 11:06:19;;;;;;;2.33;1.45;;;;;;;6.00;66.26;95616.69;5053983;28;20114;-50
2022/02/24 11:08:47;;;;;;;5.22;2.60;;;;;;;6.17;65.85;95618.06;5053435;28;20219;-51
2022/02/24 11:11:20;;;;;;;3.08;1.40;;;;;;;5.97;66.74;95617.06;5056011;28;20048;-52
2022/02/24 11:13:49;;;;;;;8.50;2.40;;;;;;;6.09;68.84;95615.59;5057925;28;20417;-48
2022/02/24 11:16:19;;;;;;;4.38;1.67;;;;;;;6.24;68.11;95613.75;5058759;28;20044;-47
2022/02/24 11:18:46;;;;;;;1.58;1.13;;;;;;;6.30;62.71;95610.44;5060334;28;20532;-48
2022/02/24 11:21:15;;;;;;;1.70;0.70;;;;;;;6.40;60.55;95611.91;5057633;28;20072;-48
2022/02/24 11:23:44;;;;;;;2.40;0.73;;;;;;;6.54;58.72;95603.28;5061855;28;20051;-48
2022/02/24 11:26:20;;;;;;;6.63;1.80;;;;;;;6.64;56.96;95602.94;5060248;28;20470;-49
2022/02/24 11:28:57;;;;;;;3.47;1.70;;;;;;;6.76;57.82;95600.66;5064632;28;20541;-47
2022/02/24 11:31:27;;;;;;;2.60;1.30;;;;;;;6.96;56.79;95593.84;5064045;28;20713;-49
2022/02/24 11:33:54;;;;;;;12.90;5.20;;;;;;;7.10;54.70;95596.53;5062279;28;20053;-48
2022/02/24 11:36:23;;;;;;;5.65;2.85;;;;;;;7.04;56.58;95593.69;5058957;28;20655;-47
2022/02/24 11:39:28;;;;;;;16.13;5.50;;;;;;;7.05;55.14;95595.28;5058930;28;20507;-49
2022/02/24 11:41:56;;;;;;;3.10;1.15;;;;;;;6.86;56.46;95590.75;5019528;28;20652;-47
2022/02/24 11:44:32;;;;;;;1.48;1.00;;;;;;;6.75;58.66;95588.69;5020102;28;20115;-48
2022/02/24 11:47:00;;;;;;;;;;;;;;;6.57;55.67;95587.38;5046029;28;20135;-46